sensor_id;sensor_type;location;lat;lon;timestamp;temperature;humidity
54960;DHT22;40860;51.710;8.736;2022-09-13T00:01:30;18.40;71.70
54960;DHT22;40860;51.710;8.736;2022-09-13T00:05:34;18.40;71.60
54960;DHT22;40860;51.710;8.736;2022-09-13T00:09:37;18.50;71.50
54960;DHT22;40860;51.710;8.736;2022-09-13T00:13:40;18.60;71.20
54960;DHT22;40860;51.710;8.736;2022-09-13T00:17:44;18.60;71.70
54960;DHT22;40860;51.710;8.736;2022-09-13T00:21:47;18.70;70.80
54960;DHT22;40860;51.710;8.736;2022-09-13T00:25:50;18.50;71.50
54960;DHT22;40860;51.710;8.736;2022-09-13T00:29:52;18.50;71.60
54960;DHT22;40860;51.710;8.736;2022-09-13T00:33:57;18.40;71.70
54960;DHT22;40860;51.710;8.736;2022-09-13T00:38:00;18.40;71.80
54960;DHT22;40860;51.710;8.736;2022-09-13T00:42:03;18.40;72.00
54960;DHT22;40860;51.710;8.736;2022-09-13T00:46:06;18.40;72.30
54960;DHT22;40860;51.710;8.736;2022-09-13T00:50:16;18.30;72.70
54960;DHT22;40860;51.710;8.736;2022-09-13T00:54:23;18.30;72.80
54960;DHT22;40860;51.710;8.736;2022-09-13T00:58:32;18.30;72.80
54960;DHT22;40860;51.710;8.736;2022-09-13T01:02:37;18.30;72.60
54960;DHT22;40860;51.710;8.736;2022-09-13T01:06:41;18.30;73.00
54960;DHT22;40860;51.710;8.736;2022-09-13T01:10:45;18.40;73.00
54960;DHT22;40860;51.710;8.736;2022-09-13T01:14:51;18.30;73.00
54960;DHT22;40860;51.710;8.736;2022-09-13T01:18:54;18.30;73.50
54960;DHT22;40860;51.710;8.736;2022-09-13T01:23:19;18.20;73.40
54960;DHT22;40860;51.710;8.736;2022-09-13T01:27:34;18.20;73.90
54960;DHT22;40860;51.710;8.736;2022-09-13T01:31:44;18.20;73.70
54960;DHT22;40860;51.710;8.736;2022-09-13T01:36:18;18.20;73.90
54960;DHT22;40860;51.710;8.736;2022-09-13T01:40:33;18.20;74.00
54960;DHT22;40860;51.710;8.736;2022-09-13T01:44:51;18.30;74.00
54960;DHT22;40860;51.710;8.736;2022-09-13T01:49:06;18.30;74.00
54960;DHT22;40860;51.710;8.736;2022-09-13T01:53:19;18.30;73.90
54960;DHT22;40860;51.710;8.736;2022-09-13T01:57:30;18.40;73.80
54960;DHT22;40860;51.710;8.736;2022-09-13T02:01:37;18.40;73.80
54960;DHT22;40860;51.710;8.736;2022-09-13T02:05:47;18.40;73.60
54960;DHT22;40860;51.710;8.736;2022-09-13T02:09:57;18.50;73.80
54960;DHT22;40860;51.710;8.736;2022-09-13T02:14:05;18.50;73.60
54960;DHT22;40860;51.710;8.736;2022-09-13T02:18:10;18.60;73.30
54960;DHT22;40860;51.710;8.736;2022-09-13T02:22:18;18.60;73.20
54960;DHT22;40860;51.710;8.736;2022-09-13T02:26:23;18.60;73.20
54960;DHT22;40860;51.710;8.736;2022-09-13T02:30:27;18.70;73.40
54960;DHT22;40860;51.710;8.736;2022-09-13T02:34:35;18.70;73.50
54960;DHT22;40860;51.710;8.736;2022-09-13T02:38:43;18.70;73.40
54960;DHT22;40860;51.710;8.736;2022-09-13T02:42:53;18.70;73.20
54960;DHT22;40860;51.710;8.736;2022-09-13T02:47:07;18.70;73.30
54960;DHT22;40860;51.710;8.736;2022-09-13T02:51:17;18.70;73.40
54960;DHT22;40860;51.710;8.736;2022-09-13T02:55:30;18.70;73.60
54960;DHT22;40860;51.710;8.736;2022-09-13T02:59:39;18.70;73.60
54960;DHT22;40860;51.710;8.736;2022-09-13T03:03:41;18.70;73.60
54960;DHT22;40860;51.710;8.736;2022-09-13T03:07:45;18.70;73.50
54960;DHT22;40860;51.710;8.736;2022-09-13T03:12:05;18.70;73.50
54960;DHT22;40860;51.710;8.736;2022-09-13T03:16:21;18.70;73.90
54960;DHT22;40860;51.710;8.736;2022-09-13T03:20:36;18.70;73.90
54960;DHT22;40860;51.710;8.736;2022-09-13T03:24:49;18.60;74.30
54960;DHT22;40860;51.710;8.736;2022-09-13T03:29:08;18.60;75.80
54960;DHT22;40860;51.710;8.736;2022-09-13T03:33:17;18.50;76.20
54960;DHT22;40860;51.710;8.736;2022-09-13T03:37:26;18.40;76.90
54960;DHT22;40860;51.710;8.736;2022-09-13T03:41:33;18.40;77.80
54960;DHT22;40860;51.710;8.736;2022-09-13T03:45:43;18.30;79.70
54960;DHT22;40860;51.710;8.736;2022-09-13T03:49:47;18.20;81.10
54960;DHT22;40860;51.710;8.736;2022-09-13T03:53:54;18.20;81.80
54960;DHT22;40860;51.710;8.736;2022-09-13T03:57:59;18.10;81.90
54960;DHT22;40860;51.710;8.736;2022-09-13T04:02:05;18.10;83.50
54960;DHT22;40860;51.710;8.736;2022-09-13T04:06:08;18.00;83.50
54960;DHT22;40860;51.710;8.736;2022-09-13T04:10:11;18.00;84.90
54960;DHT22;40860;51.710;8.736;2022-09-13T04:14:14;17.90;85.00
54960;DHT22;40860;51.710;8.736;2022-09-13T04:18:18;17.80;85.40
54960;DHT22;40860;51.710;8.736;2022-09-13T04:22:21;17.80;85.80
54960;DHT22;40860;51.710;8.736;2022-09-13T04:26:24;17.80;86.20
54960;DHT22;40860;51.710;8.736;2022-09-13T04:30:27;17.80;86.10
54960;DHT22;40860;51.710;8.736;2022-09-13T04:34:31;17.70;87.00
54960;DHT22;40860;51.710;8.736;2022-09-13T04:38:35;17.70;87.50
54960;DHT22;40860;51.710;8.736;2022-09-13T04:42:38;17.70;88.10
54960;DHT22;40860;51.710;8.736;2022-09-13T04:46:41;17.60;87.80
54960;DHT22;40860;51.710;8.736;2022-09-13T04:50:45;17.60;87.00
54960;DHT22;40860;51.710;8.736;2022-09-13T04:54:49;17.60;87.40
54960;DHT22;40860;51.710;8.736;2022-09-13T04:58:54;17.70;88.40
54960;DHT22;40860;51.710;8.736;2022-09-13T05:02:57;17.60;88.30
54960;DHT22;40860;51.710;8.736;2022-09-13T05:07:01;17.60;88.60
54960;DHT22;40860;51.710;8.736;2022-09-13T05:11:05;17.60;89.00
54960;DHT22;40860;51.710;8.736;2022-09-13T05:15:09;17.60;88.30
54960;DHT22;40860;51.710;8.736;2022-09-13T05:19:13;17.60;89.00
54960;DHT22;40860;51.710;8.736;2022-09-13T05:23:17;17.60;88.80
54960;DHT22;40860;51.710;8.736;2022-09-13T05:27:19;17.60;88.20
54960;DHT22;40860;51.710;8.736;2022-09-13T05:31:24;17.70;87.90
54960;DHT22;40860;51.710;8.736;2022-09-13T05:35:28;17.70;86.80
54960;DHT22;40860;51.710;8.736;2022-09-13T05:39:32;17.70;86.20
54960;DHT22;40860;51.710;8.736;2022-09-13T05:43:57;17.80;85.00
54960;DHT22;40860;51.710;8.736;2022-09-13T05:48:11;17.90;84.10
54960;DHT22;40860;51.710;8.736;2022-09-13T05:52:13;18.00;83.40
54960;DHT22;40860;51.710;8.736;2022-09-13T05:56:19;18.10;82.80
54960;DHT22;40860;51.710;8.736;2022-09-13T06:00:22;18.20;82.70
54960;DHT22;40860;51.710;8.736;2022-09-13T06:04:24;18.30;82.40
54960;DHT22;40860;51.710;8.736;2022-09-13T06:08:29;18.30;83.60
54960;DHT22;40860;51.710;8.736;2022-09-13T06:12:33;18.30;82.60
54960;DHT22;40860;51.710;8.736;2022-09-13T06:16:36;18.30;82.80
54960;DHT22;40860;51.710;8.736;2022-09-13T06:20:38;18.40;83.00
54960;DHT22;40860;51.710;8.736;2022-09-13T06:24:41;18.40;82.80
54960;DHT22;40860;51.710;8.736;2022-09-13T06:28:48;18.40;83.80
54960;DHT22;40860;51.710;8.736;2022-09-13T06:32:51;18.50;84.50
54960;DHT22;40860;51.710;8.736;2022-09-13T06:36:54;18.60;85.50
54960;DHT22;40860;51.710;8.736;2022-09-13T06:41:03;18.60;85.40
54960;DHT22;40860;51.710;8.736;2022-09-13T06:45:08;18.60;86.60
54960;DHT22;40860;51.710;8.736;2022-09-13T06:49:11;18.70;87.80
54960;DHT22;40860;51.710;8.736;2022-09-13T06:53:14;18.60;88.20
54960;DHT22;40860;51.710;8.736;2022-09-13T06:57:17;18.70;87.60
54960;DHT22;40860;51.710;8.736;2022-09-13T07:01:23;18.70;87.10
54960;DHT22;40860;51.710;8.736;2022-09-13T07:05:26;18.80;86.70
54960;DHT22;40860;51.710;8.736;2022-09-13T07:09:30;18.90;86.60
54960;DHT22;40860;51.710;8.736;2022-09-13T07:13:35;19.00;87.10
54960;DHT22;40860;51.710;8.736;2022-09-13T07:17:39;19.10;87.90
54960;DHT22;40860;51.710;8.736;2022-09-13T07:21:42;19.10;86.80
54960;DHT22;40860;51.710;8.736;2022-09-13T07:25:53;19.20;84.60
54960;DHT22;40860;51.710;8.736;2022-09-13T07:29:56;19.30;84.30
54960;DHT22;40860;51.710;8.736;2022-09-13T07:34:01;19.30;84.90
54960;DHT22;40860;51.710;8.736;2022-09-13T07:38:04;19.40;83.90
54960;DHT22;40860;51.710;8.736;2022-09-13T07:42:07;19.50;82.40
54960;DHT22;40860;51.710;8.736;2022-09-13T07:46:11;19.60;81.60
54960;DHT22;40860;51.710;8.736;2022-09-13T07:50:15;19.60;81.70
54960;DHT22;40860;51.710;8.736;2022-09-13T07:54:18;19.70;81.90
54960;DHT22;40860;51.710;8.736;2022-09-13T07:58:21;19.80;81.40
54960;DHT22;40860;51.710;8.736;2022-09-13T08:02:24;20.00;81.30
54960;DHT22;40860;51.710;8.736;2022-09-13T08:06:30;20.00;80.80
54960;DHT22;40860;51.710;8.736;2022-09-13T08:10:33;20.10;80.20
54960;DHT22;40860;51.710;8.736;2022-09-13T08:14:36;20.30;80.00
54960;DHT22;40860;51.710;8.736;2022-09-13T08:18:42;20.50;79.40
54960;DHT22;40860;51.710;8.736;2022-09-13T08:22:47;20.60;78.40
54960;DHT22;40860;51.710;8.736;2022-09-13T08:26:53;21.10;78.50
54960;DHT22;40860;51.710;8.736;2022-09-13T08:31:02;21.70;76.60
54960;DHT22;40860;51.710;8.736;2022-09-13T08:35:05;22.10;73.60
54960;DHT22;40860;51.710;8.736;2022-09-13T08:39:10;22.30;71.50
54960;DHT22;40860;51.710;8.736;2022-09-13T08:43:21;22.50;70.60
54960;DHT22;40860;51.710;8.736;2022-09-13T08:47:37;22.90;70.00
54960;DHT22;40860;51.710;8.736;2022-09-13T08:51:45;23.20;68.70
54960;DHT22;40860;51.710;8.736;2022-09-13T08:55:55;23.20;67.30
54960;DHT22;40860;51.710;8.736;2022-09-13T09:00:05;23.20;68.20
54960;DHT22;40860;51.710;8.736;2022-09-13T09:04:26;23.20;66.90
54960;DHT22;40860;51.710;8.736;2022-09-13T09:08:36;23.20;67.40
54960;DHT22;40860;51.710;8.736;2022-09-13T09:12:44;23.40;67.40
54960;DHT22;40860;51.710;8.736;2022-09-13T09:16:50;23.40;66.00
54960;DHT22;40860;51.710;8.736;2022-09-13T09:20:55;23.20;66.90
54960;DHT22;40860;51.710;8.736;2022-09-13T09:24:59;23.00;67.20
54960;DHT22;40860;51.710;8.736;2022-09-13T09:29:14;22.80;67.70
54960;DHT22;40860;51.710;8.736;2022-09-13T09:33:41;22.70;68.40
54960;DHT22;40860;51.710;8.736;2022-09-13T09:38:02;22.70;68.60
54960;DHT22;40860;51.710;8.736;2022-09-13T09:42:11;22.80;68.50
54960;DHT22;40860;51.710;8.736;2022-09-13T09:46:21;22.80;68.60
54960;DHT22;40860;51.710;8.736;2022-09-13T09:50:27;22.80;68.00
54960;DHT22;40860;51.710;8.736;2022-09-13T09:54:32;22.80;68.20
54960;DHT22;40860;51.710;8.736;2022-09-13T09:58:37;23.10;68.50
54960;DHT22;40860;51.710;8.736;2022-09-13T10:02:43;23.30;67.60
54960;DHT22;40860;51.710;8.736;2022-09-13T10:06:48;23.40;67.20
54960;DHT22;40860;51.710;8.736;2022-09-13T10:10:54;23.80;67.80
54960;DHT22;40860;51.710;8.736;2022-09-13T10:15:05;24.50;66.10
54960;DHT22;40860;51.710;8.736;2022-09-13T10:19:23;24.80;64.40
54960;DHT22;40860;51.710;8.736;2022-09-13T10:23:26;25.00;64.30
54960;DHT22;40860;51.710;8.736;2022-09-13T10:27:34;25.20;62.50
54960;DHT22;40860;51.710;8.736;2022-09-13T10:31:39;24.80;62.40
54960;DHT22;40860;51.710;8.736;2022-09-13T10:35:48;24.60;63.30
54960;DHT22;40860;51.710;8.736;2022-09-13T10:39:57;24.40;64.20
54960;DHT22;40860;51.710;8.736;2022-09-13T10:44:02;24.60;64.40
54960;DHT22;40860;51.710;8.736;2022-09-13T10:48:13;25.00;63.90
54960;DHT22;40860;51.710;8.736;2022-09-13T10:52:43;25.10;63.10
54960;DHT22;40860;51.710;8.736;2022-09-13T10:56:46;24.90;64.10
54960;DHT22;40860;51.710;8.736;2022-09-13T11:01:09;24.90;63.80
54960;DHT22;40860;51.710;8.736;2022-09-13T11:05:21;24.80;63.70
54960;DHT22;40860;51.710;8.736;2022-09-13T11:09:32;24.80;63.20
54960;DHT22;40860;51.710;8.736;2022-09-13T11:13:57;24.70;64.50
54960;DHT22;40860;51.710;8.736;2022-09-13T11:18:36;24.50;64.20
54960;DHT22;40860;51.710;8.736;2022-09-13T11:23:02;24.50;65.60
54960;DHT22;40860;51.710;8.736;2022-09-13T11:27:16;24.50;65.60
54960;DHT22;40860;51.710;8.736;2022-09-13T11:31:32;24.60;64.90
54960;DHT22;40860;51.710;8.736;2022-09-13T11:35:47;24.50;66.30
54960;DHT22;40860;51.710;8.736;2022-09-13T11:39:56;24.60;66.20
54960;DHT22;40860;51.710;8.736;2022-09-13T11:44:32;24.60;66.80
54960;DHT22;40860;51.710;8.736;2022-09-13T11:48:56;24.80;66.50
54960;DHT22;40860;51.710;8.736;2022-09-13T11:53:23;24.70;66.30
54960;DHT22;40860;51.710;8.736;2022-09-13T11:57:34;24.80;65.80
54960;DHT22;40860;51.710;8.736;2022-09-13T12:01:42;24.80;67.00
54960;DHT22;40860;51.710;8.736;2022-09-13T12:05:49;25.00;65.60
54960;DHT22;40860;51.710;8.736;2022-09-13T12:09:58;24.80;66.00
54960;DHT22;40860;51.710;8.736;2022-09-13T12:14:04;24.70;66.80
54960;DHT22;40860;51.710;8.736;2022-09-13T12:18:13;24.60;67.80
54960;DHT22;40860;51.710;8.736;2022-09-13T12:22:18;24.50;68.40
54960;DHT22;40860;51.710;8.736;2022-09-13T12:26:23;24.50;69.20
54960;DHT22;40860;51.710;8.736;2022-09-13T12:30:36;24.70;68.50
54960;DHT22;40860;51.710;8.736;2022-09-13T12:34:47;24.80;68.40
54960;DHT22;40860;51.710;8.736;2022-09-13T12:39:12;24.80;69.10
54960;DHT22;40860;51.710;8.736;2022-09-13T12:43:41;25.00;67.40
54960;DHT22;40860;51.710;8.736;2022-09-13T12:48:09;25.20;67.60
54960;DHT22;40860;51.710;8.736;2022-09-13T12:52:27;25.00;68.60
54960;DHT22;40860;51.710;8.736;2022-09-13T12:56:41;24.60;70.00
54960;DHT22;40860;51.710;8.736;2022-09-13T13:00:57;24.40;71.40
54960;DHT22;40860;51.710;8.736;2022-09-13T13:05:18;24.40;71.50
54960;DHT22;40860;51.710;8.736;2022-09-13T13:09:35;24.60;70.90
54960;DHT22;40860;51.710;8.736;2022-09-13T13:13:44;24.50;71.30
54960;DHT22;40860;51.710;8.736;2022-09-13T13:17:49;24.40;72.10
54960;DHT22;40860;51.710;8.736;2022-09-13T13:21:51;24.30;72.30
54960;DHT22;40860;51.710;8.736;2022-09-13T13:26:11;24.00;73.20
54960;DHT22;40860;51.710;8.736;2022-09-13T13:34:54;23.70;74.50
54960;DHT22;40860;51.710;8.736;2022-09-13T13:38:58;23.70;74.90
54960;DHT22;40860;51.710;8.736;2022-09-13T13:43:27;23.40;75.40
54960;DHT22;40860;51.710;8.736;2022-09-13T13:47:53;23.50;76.30
54960;DHT22;40860;51.710;8.736;2022-09-13T13:56:45;23.40;76.90
54960;DHT22;40860;51.710;8.736;2022-09-13T14:00:51;23.40;77.00
54960;DHT22;40860;51.710;8.736;2022-09-13T14:05:06;23.40;77.00
54960;DHT22;40860;51.710;8.736;2022-09-13T14:09:21;23.40;76.80
54960;DHT22;40860;51.710;8.736;2022-09-13T14:13:42;23.50;76.80
54960;DHT22;40860;51.710;8.736;2022-09-13T14:18:11;23.50;77.00
54960;DHT22;40860;51.710;8.736;2022-09-13T14:22:18;23.30;77.50
54960;DHT22;40860;51.710;8.736;2022-09-13T14:26:21;23.30;77.70
54960;DHT22;40860;51.710;8.736;2022-09-13T14:30:31;23.60;77.60
54960;DHT22;40860;51.710;8.736;2022-09-13T14:34:38;23.90;76.30
54960;DHT22;40860;51.710;8.736;2022-09-13T14:38:47;23.70;76.30
54960;DHT22;40860;51.710;8.736;2022-09-13T14:42:56;23.80;76.30
54960;DHT22;40860;51.710;8.736;2022-09-13T14:47:03;23.90;76.40
54960;DHT22;40860;51.710;8.736;2022-09-13T14:51:15;23.80;76.00
54960;DHT22;40860;51.710;8.736;2022-09-13T14:55:22;24.00;76.50
54960;DHT22;40860;51.710;8.736;2022-09-13T14:59:30;24.00;75.90
54960;DHT22;40860;51.710;8.736;2022-09-13T15:03:33;24.10;75.30
54960;DHT22;40860;51.710;8.736;2022-09-13T15:07:42;24.20;74.90
54960;DHT22;40860;51.710;8.736;2022-09-13T15:11:56;24.10;75.00
54960;DHT22;40860;51.710;8.736;2022-09-13T15:15:59;24.10;74.90
54960;DHT22;40860;51.710;8.736;2022-09-13T15:20:04;24.10;75.50
54960;DHT22;40860;51.710;8.736;2022-09-13T15:24:20;24.00;75.90
54960;DHT22;40860;51.710;8.736;2022-09-13T15:28:25;23.70;76.70
54960;DHT22;40860;51.710;8.736;2022-09-13T15:32:31;23.60;77.30
54960;DHT22;40860;51.710;8.736;2022-09-13T15:36:34;23.60;77.70
54960;DHT22;40860;51.710;8.736;2022-09-13T15:40:43;23.50;77.60
54960;DHT22;40860;51.710;8.736;2022-09-13T15:44:46;23.40;78.00
54960;DHT22;40860;51.710;8.736;2022-09-13T15:48:51;23.40;77.90
54960;DHT22;40860;51.710;8.736;2022-09-13T15:52:54;23.30;77.70
54960;DHT22;40860;51.710;8.736;2022-09-13T15:56:58;23.30;78.10
54960;DHT22;40860;51.710;8.736;2022-09-13T16:01:01;23.40;78.00
54960;DHT22;40860;51.710;8.736;2022-09-13T16:05:05;23.40;77.90
54960;DHT22;40860;51.710;8.736;2022-09-13T16:09:15;23.40;78.30
54960;DHT22;40860;51.710;8.736;2022-09-13T16:13:20;23.30;78.40
54960;DHT22;40860;51.710;8.736;2022-09-13T16:17:25;23.30;79.00
54960;DHT22;40860;51.710;8.736;2022-09-13T16:21:29;23.30;79.00
54960;DHT22;40860;51.710;8.736;2022-09-13T16:25:32;23.20;79.80
54960;DHT22;40860;51.710;8.736;2022-09-13T16:29:37;22.90;79.90
54960;DHT22;40860;51.710;8.736;2022-09-13T16:33:39;22.90;80.20
54960;DHT22;40860;51.710;8.736;2022-09-13T16:37:42;22.90;80.60
54960;DHT22;40860;51.710;8.736;2022-09-13T16:41:45;22.90;80.30
54960;DHT22;40860;51.710;8.736;2022-09-13T16:45:56;22.70;80.80
54960;DHT22;40860;51.710;8.736;2022-09-13T16:49:59;22.60;81.30
54960;DHT22;40860;51.710;8.736;2022-09-13T16:54:02;22.50;81.70
54960;DHT22;40860;51.710;8.736;2022-09-13T16:58:05;22.40;82.10
54960;DHT22;40860;51.710;8.736;2022-09-13T17:02:10;22.40;82.60
54960;DHT22;40860;51.710;8.736;2022-09-13T17:06:15;22.30;82.80
54960;DHT22;40860;51.710;8.736;2022-09-13T17:10:18;22.20;83.10
54960;DHT22;40860;51.710;8.736;2022-09-13T17:14:21;22.20;83.50
54960;DHT22;40860;51.710;8.736;2022-09-13T17:18:25;22.00;83.40
54960;DHT22;40860;51.710;8.736;2022-09-13T17:22:28;21.90;83.70
54960;DHT22;40860;51.710;8.736;2022-09-13T17:26:31;21.90;84.10
54960;DHT22;40860;51.710;8.736;2022-09-13T17:30:34;21.80;84.40
54960;DHT22;40860;51.710;8.736;2022-09-13T17:34:38;21.70;84.30
54960;DHT22;40860;51.710;8.736;2022-09-13T17:38:41;21.70;84.50
54960;DHT22;40860;51.710;8.736;2022-09-13T17:42:44;21.70;84.70
54960;DHT22;40860;51.710;8.736;2022-09-13T17:46:48;21.60;85.00
54960;DHT22;40860;51.710;8.736;2022-09-13T17:50:52;21.50;85.40
54960;DHT22;40860;51.710;8.736;2022-09-13T17:55:01;21.40;85.60
54960;DHT22;40860;51.710;8.736;2022-09-13T17:59:05;21.40;85.80
54960;DHT22;40860;51.710;8.736;2022-09-13T18:03:11;21.40;85.90
54960;DHT22;40860;51.710;8.736;2022-09-13T18:07:15;21.40;86.30
54960;DHT22;40860;51.710;8.736;2022-09-13T18:11:18;21.30;86.20
54960;DHT22;40860;51.710;8.736;2022-09-13T18:15:23;21.20;86.30
54960;DHT22;40860;51.710;8.736;2022-09-13T18:19:26;21.10;86.80
54960;DHT22;40860;51.710;8.736;2022-09-13T18:23:49;21.10;87.40
54960;DHT22;40860;51.710;8.736;2022-09-13T18:27:53;21.00;87.60
54960;DHT22;40860;51.710;8.736;2022-09-13T18:31:56;20.80;88.00
54960;DHT22;40860;51.710;8.736;2022-09-13T18:36:00;20.80;89.20
54960;DHT22;40860;51.710;8.736;2022-09-13T18:40:05;20.70;88.70
54960;DHT22;40860;51.710;8.736;2022-09-13T18:44:15;20.70;88.50
54960;DHT22;40860;51.710;8.736;2022-09-13T18:48:18;20.80;88.60
54960;DHT22;40860;51.710;8.736;2022-09-13T18:52:21;20.70;88.90
54960;DHT22;40860;51.710;8.736;2022-09-13T18:56:26;20.70;88.70
54960;DHT22;40860;51.710;8.736;2022-09-13T19:00:29;20.70;88.80
54960;DHT22;40860;51.710;8.736;2022-09-13T19:04:33;20.70;88.80
54960;DHT22;40860;51.710;8.736;2022-09-13T19:08:37;20.70;88.90
54960;DHT22;40860;51.710;8.736;2022-09-13T19:12:42;20.60;89.00
54960;DHT22;40860;51.710;8.736;2022-09-13T19:16:45;20.50;89.30
54960;DHT22;40860;51.710;8.736;2022-09-13T19:20:48;20.50;89.60
54960;DHT22;40860;51.710;8.736;2022-09-13T19:24:51;20.50;89.60
54960;DHT22;40860;51.710;8.736;2022-09-13T19:28:58;20.50;89.70
54960;DHT22;40860;51.710;8.736;2022-09-13T19:33:04;20.50;89.80
54960;DHT22;40860;51.710;8.736;2022-09-13T19:37:07;20.40;90.00
54960;DHT22;40860;51.710;8.736;2022-09-13T19:41:12;20.50;90.00
54960;DHT22;40860;51.710;8.736;2022-09-13T19:45:16;20.50;89.80
54960;DHT22;40860;51.710;8.736;2022-09-13T19:49:20;20.50;89.30
54960;DHT22;40860;51.710;8.736;2022-09-13T19:53:23;20.40;89.30
54960;DHT22;40860;51.710;8.736;2022-09-13T19:57:45;20.30;89.30
54960;DHT22;40860;51.710;8.736;2022-09-13T20:01:50;20.30;89.50
54960;DHT22;40860;51.710;8.736;2022-09-13T20:05:52;20.20;89.20
54960;DHT22;40860;51.710;8.736;2022-09-13T20:09:55;20.10;87.70
54960;DHT22;40860;51.710;8.736;2022-09-13T20:13:59;20.00;87.30
54960;DHT22;40860;51.710;8.736;2022-09-13T20:18:05;20.00;87.30
54960;DHT22;40860;51.710;8.736;2022-09-13T20:22:13;19.90;87.20
54960;DHT22;40860;51.710;8.736;2022-09-13T20:26:17;19.90;85.90
54960;DHT22;40860;51.710;8.736;2022-09-13T20:30:21;19.80;84.50
54960;DHT22;40860;51.710;8.736;2022-09-13T20:34:25;19.70;84.30
54960;DHT22;40860;51.710;8.736;2022-09-13T20:38:28;19.50;83.30
54960;DHT22;40860;51.710;8.736;2022-09-13T20:42:31;19.50;83.20
54960;DHT22;40860;51.710;8.736;2022-09-13T20:46:34;19.40;83.10
54960;DHT22;40860;51.710;8.736;2022-09-13T20:50:39;19.40;83.40
54960;DHT22;40860;51.710;8.736;2022-09-13T20:54:42;19.30;82.70
54960;DHT22;40860;51.710;8.736;2022-09-13T20:58:45;19.30;82.40
54960;DHT22;40860;51.710;8.736;2022-09-13T21:02:48;19.30;82.30
54960;DHT22;40860;51.710;8.736;2022-09-13T21:06:52;19.20;81.10
54960;DHT22;40860;51.710;8.736;2022-09-13T21:11:17;19.20;80.10
54960;DHT22;40860;51.710;8.736;2022-09-13T21:15:20;19.10;80.30
54960;DHT22;40860;51.710;8.736;2022-09-13T21:19:23;19.00;79.20
54960;DHT22;40860;51.710;8.736;2022-09-13T21:23:29;18.90;79.40
54960;DHT22;40860;51.710;8.736;2022-09-13T21:27:32;18.80;79.60
54960;DHT22;40860;51.710;8.736;2022-09-13T21:31:35;18.80;79.90
54960;DHT22;40860;51.710;8.736;2022-09-13T21:35:39;18.70;80.40
54960;DHT22;40860;51.710;8.736;2022-09-13T21:39:43;18.60;81.00
54960;DHT22;40860;51.710;8.736;2022-09-13T21:43:46;18.50;81.30
54960;DHT22;40860;51.710;8.736;2022-09-13T21:47:49;18.50;81.80
54960;DHT22;40860;51.710;8.736;2022-09-13T21:51:52;18.40;82.20
54960;DHT22;40860;51.710;8.736;2022-09-13T21:55:58;18.30;82.30
54960;DHT22;40860;51.710;8.736;2022-09-13T22:00:01;18.20;82.50
54960;DHT22;40860;51.710;8.736;2022-09-13T22:04:15;18.20;82.90
54960;DHT22;40860;51.710;8.736;2022-09-13T22:08:18;18.10;83.50
54960;DHT22;40860;51.710;8.736;2022-09-13T22:12:22;18.10;83.80
54960;DHT22;40860;51.710;8.736;2022-09-13T22:16:27;18.00;83.80
54960;DHT22;40860;51.710;8.736;2022-09-13T22:20:30;18.00;84.20
54960;DHT22;40860;51.710;8.736;2022-09-13T22:24:36;18.00;84.30
54960;DHT22;40860;51.710;8.736;2022-09-13T22:28:40;18.00;84.60
54960;DHT22;40860;51.710;8.736;2022-09-13T22:32:45;17.90;84.60
54960;DHT22;40860;51.710;8.736;2022-09-13T22:36:48;17.80;85.00
54960;DHT22;40860;51.710;8.736;2022-09-13T22:40:53;17.80;84.90
54960;DHT22;40860;51.710;8.736;2022-09-13T22:44:58;17.80;85.10
54960;DHT22;40860;51.710;8.736;2022-09-13T22:49:02;17.80;85.50
54960;DHT22;40860;51.710;8.736;2022-09-13T22:53:04;17.70;85.90
54960;DHT22;40860;51.710;8.736;2022-09-13T22:57:08;17.70;86.00
54960;DHT22;40860;51.710;8.736;2022-09-13T23:01:14;17.60;86.20
54960;DHT22;40860;51.710;8.736;2022-09-13T23:05:17;17.50;86.30
54960;DHT22;40860;51.710;8.736;2022-09-13T23:09:19;17.40;86.60
54960;DHT22;40860;51.710;8.736;2022-09-13T23:13:23;17.30;86.60
54960;DHT22;40860;51.710;8.736;2022-09-13T23:17:30;17.30;86.90
54960;DHT22;40860;51.710;8.736;2022-09-13T23:21:42;17.30;86.70
54960;DHT22;40860;51.710;8.736;2022-09-13T23:25:45;17.30;86.80
54960;DHT22;40860;51.710;8.736;2022-09-13T23:29:48;17.20;86.60
54960;DHT22;40860;51.710;8.736;2022-09-13T23:33:54;17.20;86.90
54960;DHT22;40860;51.710;8.736;2022-09-13T23:37:57;17.20;86.90
54960;DHT22;40860;51.710;8.736;2022-09-13T23:42:00;17.20;87.10
54960;DHT22;40860;51.710;8.736;2022-09-13T23:46:03;17.20;87.30
54960;DHT22;40860;51.710;8.736;2022-09-13T23:50:08;17.20;87.40
54960;DHT22;40860;51.710;8.736;2022-09-13T23:54:11;17.20;87.50
54960;DHT22;40860;51.710;8.736;2022-09-13T23:58:14;17.10;87.60
